Como, Texas
Current Conditions -  °F | °C
As of 10:15 PM on Monday 22 Dec 2014 (Local Time) from KSLR Reporting Station
Clear Clear  
Wind Chill: 55°   Ceiling: Unl
Heat Index: 55°   Visibility: 10mi
Dew Point: 47°   Wind: 7mph
Humidity: 75%   Direction: 330°NNW
Pressure: 29.7"   Gusts: NA
Location:  33.06°N, 95.47°W
Report Text: KSLR 230415Z AUTO 33006KT 10SM CLR 13/08 A2970 RMK AO2 T01250082
Loading
Personal Weather Stations






























Interactive Weather Map New forecast layout! Learn more

10-Day Weather Forecast

Advertisements
Track Severe Weather on mobile